createdAt,value
2023-04-15T00:00:01.995Z,999.02
2023-04-15T00:00:33.774Z,999.02
2023-04-15T00:01:04.960Z,999.22
2023-04-15T00:01:35.537Z,999.12
2023-04-15T00:01:53.725Z,999.12
2023-04-15T00:02:25.075Z,999.12
2023-04-15T00:02:42.087Z,999.22
2023-04-15T00:03:13.023Z,999.22
2023-04-15T00:03:35.189Z,999.02
2023-04-15T00:04:01.685Z,999.02
2023-04-15T00:04:33.046Z,999.02
2023-04-15T00:05:06.100Z,999.12
2023-04-15T00:05:34.838Z,999.12
2023-04-15T00:05:53.048Z,999.12
2023-04-15T00:06:25.822Z,999.12
2023-04-15T00:06:42.914Z,999.12
2023-04-15T00:07:12.860Z,999.12
2023-04-15T00:07:34.912Z,999.02
2023-04-15T00:08:01.768Z,999.02
2023-04-15T00:08:32.936Z,999.02
2023-04-15T00:09:04.986Z,999.22
2023-04-15T00:09:34.879Z,999.12
2023-04-15T00:09:52.840Z,999.12
2023-04-15T00:10:25.943Z,999.12
2023-04-15T00:10:43.247Z,999.12
2023-04-15T00:11:12.857Z,999.12
2023-04-15T00:11:34.824Z,999.12
2023-04-15T00:12:01.717Z,999.12
2023-04-15T00:12:33.120Z,999.12
2023-04-15T00:13:05.028Z,999.02
2023-04-15T00:13:35.182Z,998.92
2023-04-15T00:13:52.820Z,998.92
2023-04-15T00:14:25.745Z,998.92
2023-04-15T00:14:42.917Z,999.12
2023-04-15T00:15:13.062Z,999.12
2023-04-15T00:15:34.851Z,999.12
2023-04-15T00:16:01.706Z,999.12
2023-04-15T00:16:33.575Z,999.12
2023-04-15T00:17:05.039Z,999.12
2023-04-15T00:17:35.454Z,999.02
2023-04-15T00:17:52.868Z,999.02
2023-04-15T00:18:25.790Z,999.02
2023-04-15T00:18:42.911Z,999.02
2023-04-15T00:19:12.891Z,999.02
2023-04-15T00:19:34.850Z,999.02
2023-04-15T00:20:01.748Z,999.02
2023-04-15T00:20:32.987Z,999.02
2023-04-15T00:21:04.958Z,998.92
2023-04-15T00:21:35.266Z,999.12
2023-04-15T00:21:52.924Z,999.12
2023-04-15T00:22:25.835Z,999.12
2023-04-15T00:22:42.947Z,999.02
2023-04-15T00:23:28.914Z,999.02
2023-04-15T00:24:01.870Z,999.12
2023-04-15T00:24:32.978Z,999.12
2023-04-15T00:25:05.485Z,999.12
2023-04-15T00:25:34.764Z,999.02
2023-04-15T00:25:52.988Z,999.02
2023-04-15T00:26:25.708Z,999.02
2023-04-15T00:26:42.876Z,999.12
2023-04-15T00:27:13.054Z,999.12
2023-04-15T00:27:34.835Z,999.02
2023-04-15T00:28:01.598Z,999.02
2023-04-15T00:28:32.925Z,999.02
2023-04-15T00:29:04.935Z,998.92
2023-04-15T00:29:34.813Z,999.12
2023-04-15T00:29:52.920Z,999.12
2023-04-15T00:30:26.102Z,999.12
2023-04-15T00:30:56.870Z,999.02
2023-04-15T00:31:28.939Z,999.02
2023-04-15T00:32:01.007Z,999.02
2023-04-15T00:32:32.965Z,999.02
2023-04-15T00:33:04.882Z,999.02
2023-04-15T00:33:34.821Z,999.02
2023-04-15T00:33:53.648Z,999.02
2023-04-15T00:34:24.964Z,999.02
2023-04-15T00:34:42.151Z,999.12
2023-04-15T00:35:13.809Z,999.12
2023-04-15T00:35:35.223Z,998.92
2023-04-15T00:36:00.811Z,998.92
2023-04-15T00:36:33.597Z,998.92
2023-04-15T00:37:04.944Z,998.92
2023-04-15T00:37:34.842Z,998.92
2023-04-15T00:37:53.580Z,998.92
2023-04-15T00:38:24.911Z,998.92
2023-04-15T00:38:42.000Z,998.92
2023-04-15T00:39:13.688Z,998.92
2023-04-15T00:39:34.864Z,999.12
2023-04-15T00:40:01.075Z,999.12
2023-04-15T00:40:33.844Z,999.12
2023-04-15T00:41:05.018Z,998.71
2023-04-15T00:41:34.871Z,998.92
2023-04-15T00:41:53.724Z,998.92
2023-04-15T00:42:25.030Z,998.92
2023-04-15T00:42:42.131Z,998.61
2023-04-15T00:43:13.643Z,998.61
2023-04-15T00:43:35.012Z,999.02
2023-04-15T00:44:01.288Z,999.02
2023-04-15T00:44:33.644Z,999.02
2023-04-15T00:45:05.257Z,998.92
2023-04-15T00:45:34.806Z,998.61
2023-04-15T00:45:53.890Z,998.61
2023-04-15T00:46:25.161Z,998.61
2023-04-15T00:46:42.130Z,999.02
2023-04-15T00:47:13.596Z,999.02
2023-04-15T00:47:34.880Z,998.92
2023-04-15T00:48:01.227Z,998.92
2023-04-15T00:48:33.664Z,998.92
2023-04-15T00:49:04.937Z,999.02
2023-04-15T00:49:34.804Z,998.92
2023-04-15T00:49:53.530Z,998.92
2023-04-15T00:50:25.184Z,998.92
2023-04-15T00:50:42.062Z,999.02
2023-04-15T00:51:13.713Z,999.02
2023-04-15T00:51:34.887Z,998.92
2023-04-15T00:52:00.866Z,998.92
2023-04-15T00:52:33.614Z,998.92
2023-04-15T00:53:05.118Z,998.81
2023-04-15T00:53:34.842Z,998.92
2023-04-15T00:53:53.702Z,998.92
2023-04-15T00:54:25.094Z,998.92
2023-04-15T00:54:42.005Z,998.92
2023-04-15T00:55:13.880Z,998.92
2023-04-15T00:55:34.866Z,998.81
2023-04-15T00:56:16.978Z,998.81
2023-04-15T00:56:34.964Z,998.81
2023-04-15T00:57:04.987Z,998.81
2023-04-15T00:57:34.886Z,998.92
2023-04-15T00:57:53.689Z,998.92
2023-04-15T00:58:25.227Z,998.92
2023-04-15T00:58:42.025Z,998.92
2023-04-15T00:59:13.724Z,998.92
2023-04-15T00:59:34.878Z,998.81
2023-04-15T01:00:01.611Z,998.81
2023-04-15T01:00:33.738Z,998.81
2023-04-15T01:01:04.993Z,998.92
2023-04-15T01:01:35.083Z,999.02
2023-04-15T01:01:53.749Z,999.02
2023-04-15T01:02:25.234Z,999.02
2023-04-15T01:02:42.138Z,998.92
2023-04-15T01:03:29.960Z,998.92
2023-04-15T01:04:00.922Z,998.92
2023-04-15T01:04:33.037Z,998.92
2023-04-15T01:05:05.126Z,999.02
2023-04-15T01:05:35.240Z,998.92
2023-04-15T01:05:53.783Z,998.92
2023-04-15T01:06:24.980Z,998.92
2023-04-15T01:06:42.002Z,999.02
2023-04-15T01:07:13.681Z,999.02
2023-04-15T01:07:34.793Z,999.22
2023-04-15T01:08:00.913Z,999.22
2023-04-15T01:08:33.712Z,999.22
2023-04-15T01:09:05.001Z,998.92
2023-04-15T01:09:34.830Z,998.92
2023-04-15T01:09:53.560Z,998.92
2023-04-15T01:10:26.023Z,998.92
2023-04-15T01:10:42.023Z,998.81
2023-04-15T01:11:13.706Z,998.81
2023-04-15T01:11:34.881Z,998.92
2023-04-15T01:12:00.854Z,998.92
2023-04-15T01:12:33.778Z,998.92
2023-04-15T01:13:05.040Z,998.92
2023-04-15T01:13:34.755Z,998.71
2023-04-15T01:13:53.661Z,998.71
2023-04-15T01:14:24.914Z,998.71
2023-04-15T01:14:42.013Z,998.81
2023-04-15T01:15:13.989Z,998.81
2023-04-15T01:15:34.845Z,998.92
2023-04-15T01:16:00.928Z,998.92
2023-04-15T01:16:33.673Z,998.92
2023-04-15T01:17:05.038Z,998.92
2023-04-15T01:17:35.180Z,998.81
2023-04-15T01:17:53.702Z,998.81
2023-04-15T01:18:24.843Z,998.81
2023-04-15T01:18:42.019Z,998.92
2023-04-15T01:19:13.636Z,998.92
2023-04-15T01:19:35.240Z,998.81
2023-04-15T01:20:01.007Z,998.81
2023-04-15T01:20:33.732Z,998.81
2023-04-15T01:21:05.157Z,998.92
2023-04-15T01:21:34.762Z,998.71
2023-04-15T01:21:53.724Z,998.71
2023-04-15T01:22:24.880Z,998.71
2023-04-15T01:22:41.999Z,998.71
2023-04-15T01:23:14.453Z,998.71
2023-04-15T01:23:35.341Z,998.92
2023-04-15T01:24:00.897Z,998.92
2023-04-15T01:24:32.942Z,998.92
2023-04-15T01:25:05.128Z,998.71
2023-04-15T01:25:35.423Z,998.81
2023-04-15T01:25:53.041Z,998.81
2023-04-15T01:26:43.055Z,998.81
2023-04-15T01:27:19.019Z,998.81
2023-04-15T01:27:41.878Z,998.71
2023-04-15T01:28:05.148Z,998.71
2023-04-15T01:28:33.004Z,998.71
2023-04-15T01:29:11.196Z,998.81
2023-04-15T01:29:41.359Z,998.81
2023-04-15T01:30:09.169Z,998.81
2023-04-15T01:30:34.973Z,998.81
2023-04-15T01:31:03.118Z,998.81
2023-04-15T01:31:34.771Z,998.81
2023-04-15T01:32:00.961Z,998.92
2023-04-15T01:32:36.066Z,998.81
2023-04-15T01:33:10.783Z,998.81
2023-04-15T01:33:40.801Z,998.81
2023-04-15T01:34:16.085Z,998.81
2023-04-15T01:34:35.937Z,998.92
2023-04-15T01:34:56.879Z,998.92
2023-04-15T01:35:29.141Z,998.92
2023-04-15T01:36:04.150Z,998.71
2023-04-15T01:36:33.007Z,998.71
2023-04-15T01:37:04.925Z,999.02
2023-04-15T01:37:34.766Z,998.92
2023-04-15T01:37:58.199Z,998.92
2023-04-15T01:38:30.710Z,998.92
2023-04-15T01:38:57.457Z,998.81
2023-04-15T01:39:35.936Z,998.81
2023-04-15T01:40:01.219Z,998.92
2023-04-15T01:40:33.024Z,998.92
2023-04-15T01:41:05.812Z,998.81
2023-04-15T01:41:34.958Z,998.81
2023-04-15T01:41:57.099Z,998.81
2023-04-15T01:42:30.980Z,998.81
2023-04-15T01:43:03.585Z,998.92
2023-04-15T01:43:28.901Z,998.92
2023-04-15T01:44:02.289Z,999.12
2023-04-15T01:44:33.009Z,999.12
2023-04-15T01:45:05.675Z,998.81
2023-04-15T01:45:40.894Z,998.71
2023-04-15T01:46:14.926Z,998.71
2023-04-15T01:46:38.414Z,998.71
2023-04-15T01:47:02.986Z,998.71
2023-04-15T01:47:35.292Z,998.71
2023-04-15T01:48:07.777Z,998.71
2023-04-15T01:48:32.923Z,998.71
2023-04-15T01:49:11.420Z,998.71
2023-04-15T01:49:41.592Z,998.71
2023-04-15T01:50:15.704Z,998.71
2023-04-15T01:50:38.237Z,998.71
2023-04-15T01:51:00.608Z,998.71
2023-04-15T01:51:28.951Z,998.71
2023-04-15T01:52:35.128Z,998.71
2023-04-15T01:53:41.330Z,998.71
2023-04-15T01:54:47.503Z,998.71
2023-04-15T01:55:53.831Z,998.71
2023-04-15T01:57:00.007Z,998.71
2023-04-15T01:58:06.157Z,998.71
2023-04-15T01:58:43.708Z,998.92
2023-04-15T01:59:13.009Z,998.92
2023-04-15T01:59:42.229Z,999.02
2023-04-15T02:00:06.284Z,999.02
2023-04-15T02:00:32.958Z,999.02
2023-04-15T02:01:04.981Z,998.71
2023-04-15T02:01:36.579Z,998.71
2023-04-15T02:02:15.118Z,998.71
2023-04-15T02:02:40.873Z,998.81
2023-04-15T02:03:19.708Z,998.81
2023-04-15T02:03:42.269Z,998.71
2023-04-15T02:04:00.985Z,998.71
2023-04-15T02:04:39.028Z,998.71
2023-04-15T02:05:12.089Z,998.61
2023-04-15T02:05:35.618Z,998.92
2023-04-15T02:05:53.048Z,998.92
2023-04-15T02:06:25.016Z,998.92
2023-04-15T02:06:42.163Z,998.92
2023-04-15T02:07:12.908Z,998.92
2023-04-15T02:07:44.982Z,998.81
2023-04-15T02:08:23.389Z,998.81
2023-04-15T02:08:41.303Z,998.81
2023-04-15T02:09:04.946Z,998.81
2023-04-15T02:09:40.798Z,998.81
2023-04-15T02:10:10.563Z,998.81
2023-04-15T02:10:34.941Z,998.81
2023-04-15T02:10:57.468Z,998.81
2023-04-15T02:11:29.584Z,998.81
2023-04-15T02:12:00.867Z,998.92
2023-04-15T02:12:39.294Z,998.92
2023-04-15T02:13:04.997Z,999.12
2023-04-15T02:13:34.926Z,998.81
2023-04-15T02:13:57.611Z,998.81
2023-04-15T02:14:31.034Z,998.81
2023-04-15T02:14:56.975Z,998.81
2023-04-15T02:15:29.962Z,998.81
2023-04-15T02:16:00.915Z,998.61
2023-04-15T02:16:33.049Z,998.61
2023-04-15T02:17:05.858Z,999.02
2023-04-15T02:17:41.179Z,999.02
2023-04-15T02:18:09.018Z,999.02
2023-04-15T02:18:40.827Z,998.92
2023-04-15T02:19:12.933Z,998.92
2023-04-15T02:19:37.599Z,998.92
2023-04-15T02:20:07.082Z,998.92
2023-04-15T02:20:39.309Z,998.92
2023-04-15T02:21:05.064Z,999.02
2023-04-15T02:21:41.732Z,999.02
2023-04-15T02:22:15.376Z,999.02
2023-04-15T02:22:40.723Z,999.12
2023-04-15T02:23:20.140Z,999.12
2023-04-15T02:23:36.648Z,998.92
2023-04-15T02:24:16.909Z,998.92
2023-04-15T02:24:35.614Z,998.81
2023-04-15T02:25:06.039Z,998.81
2023-04-15T02:25:34.903Z,999.02
2023-04-15T02:25:57.401Z,999.02
2023-04-15T02:26:24.885Z,999.02
2023-04-15T02:26:48.127Z,998.92
2023-04-15T02:27:19.154Z,998.92
2023-04-15T02:27:42.855Z,999.02
2023-04-15T02:28:05.614Z,999.02
2023-04-15T02:28:32.971Z,999.02
2023-04-15T02:29:11.233Z,998.81
2023-04-15T02:29:36.383Z,998.81
2023-04-15T02:29:52.801Z,998.81
2023-04-15T02:30:25.317Z,998.81
2023-04-15T02:30:47.990Z,999.02
2023-04-15T02:31:20.273Z,999.02
2023-04-15T02:31:42.532Z,999.12
2023-04-15T02:32:05.217Z,999.12
2023-04-15T02:32:38.889Z,999.12
2023-04-15T02:33:05.284Z,999.22
2023-04-15T02:33:35.710Z,999.02
2023-04-15T02:33:58.846Z,999.02
2023-04-15T02:34:31.068Z,999.02
2023-04-15T02:35:03.302Z,999.02
2023-04-15T02:35:36.224Z,999.02
2023-04-15T02:36:05.226Z,998.92
2023-04-15T02:36:39.129Z,998.92
2023-04-15T02:37:05.030Z,999.12
2023-04-15T02:37:35.710Z,999.02
2023-04-15T02:37:52.902Z,999.02
2023-04-15T02:38:25.173Z,999.02
2023-04-15T02:38:42.122Z,999.02
2023-04-15T02:39:13.767Z,999.02
2023-04-15T02:39:40.745Z,999.12
2023-04-15T02:40:03.865Z,999.12
2023-04-15T02:40:39.952Z,999.12
2023-04-15T02:41:11.195Z,999.12
2023-04-15T02:41:34.944Z,999.02
2023-04-15T02:41:52.930Z,999.02
2023-04-15T02:42:31.165Z,999.02
2023-04-15T02:42:56.912Z,998.92
2023-04-15T02:43:29.625Z,998.92
2023-04-15T02:44:01.219Z,999.12
2023-04-15T02:44:33.061Z,999.12
2023-04-15T02:45:06.094Z,999.02
2023-04-15T02:45:35.139Z,999.22
2023-04-15T02:45:57.819Z,999.22
2023-04-15T02:46:26.250Z,999.22
2023-04-15T02:46:48.616Z,999.32
2023-04-15T02:47:12.915Z,999.32
2023-04-15T02:47:40.688Z,999.12
2023-04-15T02:48:03.339Z,999.12
2023-04-15T02:48:38.939Z,999.12
2023-04-15T02:49:05.069Z,999.02
2023-04-15T02:49:37.040Z,998.92
2023-04-15T02:50:15.317Z,998.92
2023-04-15T02:50:37.797Z,999.12
2023-04-15T02:51:02.824Z,999.12
2023-04-15T02:51:34.826Z,999.12
2023-04-15T02:52:00.892Z,998.81
2023-04-15T02:52:33.739Z,998.81
2023-04-15T02:53:11.350Z,999.12
2023-04-15T02:53:34.806Z,999.02
2023-04-15T02:53:57.924Z,999.02
2023-04-15T02:54:30.786Z,999.02
2023-04-15T02:54:57.571Z,999.22
2023-04-15T02:55:29.855Z,999.22
2023-04-15T02:56:07.086Z,999.02
2023-04-15T02:56:33.845Z,999.02
2023-04-15T02:57:11.038Z,999.12
2023-04-15T02:57:40.901Z,999.02
2023-04-15T02:58:09.833Z,999.02
2023-04-15T02:58:41.054Z,999.12
2023-04-15T02:59:19.331Z,999.12
2023-04-15T02:59:42.438Z,999.02
2023-04-15T03:00:05.751Z,999.02
2023-04-15T03:00:39.282Z,999.02
2023-04-15T03:01:11.266Z,999.12
2023-04-15T03:01:41.533Z,998.92
2023-04-15T03:02:09.001Z,998.92
2023-04-15T03:02:40.910Z,999.12
2023-04-15T03:03:21.150Z,999.12
2023-04-15T03:04:01.142Z,998.81
2023-04-15T03:04:33.055Z,998.81
2023-04-15T03:05:05.189Z,998.92
2023-04-15T03:05:34.866Z,999.02
2023-04-15T03:05:57.603Z,999.02
2023-04-15T03:06:31.256Z,999.02
2023-04-15T03:07:03.128Z,999.02
2023-04-15T03:07:36.123Z,999.02
2023-04-15T03:08:07.054Z,999.12
2023-04-15T03:08:33.015Z,999.12
2023-04-15T03:09:11.521Z,999.22
2023-04-15T03:09:40.873Z,999.12
2023-04-15T03:10:15.713Z,999.12
2023-04-15T03:10:38.630Z,998.92
2023-04-15T03:11:13.081Z,998.92
2023-04-15T03:11:36.389Z,999.12
2023-04-15T03:12:08.191Z,999.12
2023-04-15T03:12:38.868Z,999.12
2023-04-15T03:13:10.988Z,999.12
2023-04-15T03:13:41.902Z,999.12
2023-04-15T03:14:14.765Z,999.12
2023-04-15T03:14:35.057Z,999.12
2023-04-15T03:14:57.873Z,999.12
2023-04-15T03:15:35.385Z,999.12
2023-04-15T03:16:01.028Z,999.02
2023-04-15T03:16:40.304Z,999.02
2023-04-15T03:17:05.068Z,999.02
2023-04-15T03:17:41.093Z,999.12
2023-04-15T03:18:09.668Z,999.12
2023-04-15T03:18:35.047Z,999.02
2023-04-15T03:19:02.964Z,999.02
2023-04-15T03:19:28.925Z,999.02
2023-04-15T03:20:01.299Z,999.32
2023-04-15T03:20:39.256Z,999.32
2023-04-15T03:21:11.756Z,999.12
2023-04-15T03:21:34.899Z,999.02
2023-04-15T03:21:57.150Z,999.02
2023-04-15T03:22:31.294Z,999.02
2023-04-15T03:23:02.752Z,999.12
2023-04-15T03:23:28.954Z,999.12
2023-04-15T03:24:01.777Z,999.12
2023-04-15T03:24:39.094Z,999.12
2023-04-15T03:25:05.227Z,999.22
2023-04-15T03:25:41.416Z,999.42
2023-04-15T03:26:09.014Z,999.42
2023-04-15T03:26:41.245Z,999.02
2023-04-15T03:27:12.974Z,999.02
2023-04-15T03:27:40.879Z,999.32
2023-04-15T03:28:00.884Z,999.32
2023-04-15T03:28:33.796Z,999.32
2023-04-15T03:29:06.025Z,999.12
2023-04-15T03:29:40.883Z,999.22
2023-04-15T03:30:09.248Z,999.22
2023-04-15T03:30:41.108Z,999.12
2023-04-15T03:31:13.935Z,999.12
2023-04-15T03:31:34.873Z,999.02
2023-04-15T03:32:07.103Z,999.02
2023-04-15T03:32:40.168Z,999.02
2023-04-15T03:33:11.072Z,999.22
2023-04-15T03:33:34.853Z,999.22
2023-04-15T03:33:57.290Z,999.22
2023-04-15T03:34:31.343Z,999.22
2023-04-15T03:34:57.416Z,999.12
2023-04-15T03:35:43.328Z,999.12
2023-04-15T03:36:05.889Z,999.12
2023-04-15T03:36:38.966Z,999.12
2023-04-15T03:37:11.242Z,999.22
2023-04-15T03:37:35.730Z,999.32
2023-04-15T03:37:52.893Z,999.32
2023-04-15T03:38:31.182Z,999.32
2023-04-15T03:38:56.940Z,999.22
2023-04-15T03:39:28.987Z,999.22
2023-04-15T03:40:01.067Z,999.22
2023-04-15T03:40:33.698Z,999.22
2023-04-15T03:41:05.092Z,999.22
2023-04-15T03:41:34.878Z,999.12
2023-04-15T03:41:58.302Z,999.12
2023-04-15T03:43:04.491Z,999.12
2023-04-15T03:44:10.717Z,999.12
2023-04-15T03:45:17.140Z,999.12
2023-04-15T03:46:23.386Z,999.12
2023-04-15T03:47:29.587Z,999.12
2023-04-15T03:48:35.785Z,999.12
2023-04-15T03:49:28.842Z,999.22
2023-04-15T03:49:59.309Z,999.22
2023-04-15T03:50:31.231Z,999.22
2023-04-15T03:51:02.993Z,999.32
2023-04-15T03:51:29.054Z,999.32
2023-04-15T03:52:09.006Z,999.12
2023-04-15T03:52:33.126Z,999.12
2023-04-15T03:53:05.061Z,999.22
2023-04-15T03:53:41.881Z,999.32
2023-04-15T03:54:14.896Z,999.32
2023-04-15T03:54:35.012Z,999.22
2023-04-15T03:54:57.106Z,999.22
2023-04-15T03:55:35.214Z,999.22
2023-04-15T03:56:00.982Z,999.02
2023-04-15T03:56:39.074Z,999.02
2023-04-15T03:57:10.954Z,999.22
2023-04-15T03:57:41.837Z,999.32
2023-04-15T03:58:14.956Z,999.32
2023-04-15T03:58:40.717Z,999.12
2023-04-15T03:59:19.722Z,999.12
2023-04-15T03:59:51.119Z,999.22
2023-04-15T04:00:23.426Z,999.22
2023-04-15T04:00:41.210Z,999.22
2023-04-15T04:01:05.068Z,999.22
2023-04-15T04:01:40.988Z,999.22
2023-04-15T04:02:16.247Z,999.22
2023-04-15T04:02:35.010Z,999.32
2023-04-15T04:02:57.487Z,999.32
2023-04-15T04:03:29.298Z,999.32
2023-04-15T04:04:07.140Z,999.52
2023-04-15T04:04:33.288Z,999.52
2023-04-15T04:05:11.413Z,999.32
2023-04-15T04:05:34.852Z,999.12
2023-04-15T04:05:58.562Z,999.12
2023-04-15T04:06:24.995Z,999.12
2023-04-15T04:06:47.899Z,999.22
2023-04-15T04:07:12.957Z,999.22
2023-04-15T04:07:40.927Z,999.12
2023-04-15T04:08:03.589Z,999.12
2023-04-15T04:08:40.090Z,999.12
2023-04-15T04:09:10.833Z,999.22
2023-04-15T04:09:35.520Z,999.22
2023-04-15T04:09:58.880Z,999.22
2023-04-15T04:10:31.309Z,999.22
2023-04-15T04:10:56.968Z,999.42
2023-04-15T04:11:36.064Z,999.42
2023-04-15T04:12:06.852Z,999.32
2023-04-15T04:12:33.057Z,999.32
2023-04-15T04:13:07.303Z,999.42
2023-04-15T04:13:34.885Z,999.32
2023-04-15T04:13:57.681Z,999.32
2023-04-15T04:14:25.953Z,999.32
2023-04-15T04:14:48.207Z,999.22
2023-04-15T04:15:19.060Z,999.22
2023-04-15T04:15:36.049Z,999.52
2023-04-15T04:16:01.099Z,999.52
2023-04-15T04:16:39.972Z,999.52
2023-04-15T04:17:05.161Z,999.42
2023-04-15T04:17:41.145Z,999.32
2023-04-15T04:18:09.766Z,999.32
2023-04-15T04:18:35.157Z,999.42
2023-04-15T04:18:57.199Z,999.42
2023-04-15T04:19:29.807Z,999.42
2023-04-15T04:20:01.160Z,999.52
2023-04-15T04:20:40.176Z,999.52
2023-04-15T04:21:10.807Z,999.52
2023-04-15T04:21:40.822Z,999.32
2023-04-15T04:22:16.559Z,999.32
2023-04-15T04:22:42.921Z,999.42
2023-04-15T04:23:12.993Z,999.42
2023-04-15T04:23:41.417Z,999.22
2023-04-15T04:24:06.954Z,999.22
2023-04-15T04:24:33.114Z,999.22
2023-04-15T04:25:12.453Z,999.32
2023-04-15T04:25:34.646Z,999.32
2023-04-15T04:25:57.335Z,999.32
2023-04-15T04:26:25.916Z,999.32
2023-04-15T04:26:48.017Z,999.42
2023-04-15T04:27:19.176Z,999.42
2023-04-15T04:27:42.392Z,999.63
2023-04-15T04:28:00.946Z,999.63
2023-04-15T04:28:33.049Z,999.63
2023-04-15T04:29:05.828Z,999.52
2023-04-15T04:29:41.061Z,999.52
2023-04-15T04:30:16.351Z,999.52
2023-04-15T04:30:41.068Z,999.42
2023-04-15T04:31:22.600Z,999.42
2023-04-15T04:31:43.201Z,999.52
2023-04-15T04:32:06.824Z,999.52
2023-04-15T04:32:39.325Z,999.52
2023-04-15T04:33:05.099Z,999.42
2023-04-15T04:33:41.964Z,999.32
2023-04-15T04:34:15.357Z,999.32
2023-04-15T04:34:37.821Z,999.52
2023-04-15T04:35:03.321Z,999.52
2023-04-15T04:35:34.953Z,999.52
2023-04-15T04:36:00.974Z,999.42
2023-04-15T04:36:40.134Z,999.42
2023-04-15T04:37:05.043Z,999.32
2023-04-15T04:37:41.206Z,999.42
2023-04-15T04:38:09.786Z,999.42
2023-04-15T04:38:42.984Z,999.63
2023-04-15T04:39:12.977Z,999.63
2023-04-15T04:39:37.248Z,999.73
2023-04-15T04:40:06.944Z,999.73
2023-04-15T04:40:33.028Z,999.73
2023-04-15T04:41:06.056Z,999.42
2023-04-15T04:41:34.930Z,999.32
2023-04-15T04:41:58.987Z,999.32
2023-04-15T04:42:26.064Z,999.32
2023-04-15T04:42:43.057Z,999.52
2023-04-15T04:43:19.408Z,999.52
2023-04-15T04:43:42.377Z,999.63
2023-04-15T04:44:07.782Z,999.63
2023-04-15T04:44:33.301Z,999.63
2023-04-15T04:45:05.778Z,999.73
2023-04-15T04:45:36.098Z,999.73
2023-04-15T04:45:59.184Z,999.73
2023-04-15T04:46:32.372Z,999.73
2023-04-15T04:47:03.504Z,999.52
2023-04-15T04:47:47.043Z,999.52
2023-04-15T04:48:17.259Z,999.52
2023-04-15T04:48:35.836Z,999.73
2023-04-15T04:49:05.760Z,999.73
2023-04-15T04:49:36.226Z,999.52
2023-04-15T04:49:53.225Z,999.52
2023-04-15T04:50:57.294Z,999.63
2023-04-15T04:51:29.604Z,999.63
2023-04-15T04:52:01.407Z,999.63
2023-04-15T04:52:33.137Z,999.63
2023-04-15T04:53:05.195Z,999.83
2023-04-15T04:53:35.679Z,999.83
2023-04-15T04:53:53.133Z,999.83
2023-04-15T04:54:26.061Z,999.83
2023-04-15T04:54:42.988Z,999.63
2023-04-15T04:55:13.303Z,999.63
2023-04-15T04:55:35.178Z,999.73
2023-04-15T04:56:01.930Z,999.73
2023-04-15T04:56:33.198Z,999.73
2023-04-15T04:57:05.314Z,999.93
2023-04-15T04:57:35.153Z,999.83
2023-04-15T04:57:53.150Z,999.83
2023-04-15T04:58:26.095Z,999.83
2023-04-15T04:58:57.095Z,999.83
2023-04-15T04:59:29.186Z,999.83
2023-04-15T05:00:01.830Z,999.63
2023-04-15T05:00:33.197Z,999.63
2023-04-15T05:01:05.266Z,999.83
2023-04-15T05:01:35.045Z,999.73
2023-04-15T05:01:54.998Z,999.73
2023-04-15T05:02:25.275Z,999.73
2023-04-15T05:02:42.501Z,999.73
2023-04-15T05:03:13.258Z,999.73
2023-04-15T05:03:35.233Z,999.83
2023-04-15T05:04:01.224Z,999.83
2023-04-15T05:04:34.223Z,999.83
2023-04-15T05:05:05.499Z,999.93
2023-04-15T05:05:34.928Z,1000.24
2023-04-15T05:05:54.150Z,1000.24
2023-04-15T05:06:25.271Z,1000.24
2023-04-15T05:06:42.309Z,1000.03
2023-04-15T05:07:13.951Z,1000.03
2023-04-15T05:07:35.232Z,999.73
2023-04-15T05:08:01.272Z,999.73
2023-04-15T05:08:33.240Z,999.73
2023-04-15T05:09:05.364Z,999.93
2023-04-15T05:09:35.075Z,999.93
2023-04-15T05:09:53.228Z,999.93
2023-04-15T05:10:26.314Z,999.93
2023-04-15T05:10:57.188Z,999.83
2023-04-15T05:11:29.245Z,999.83
2023-04-15T05:12:01.198Z,999.93
2023-04-15T05:12:33.196Z,999.93
2023-04-15T05:13:05.296Z,1000.03
2023-04-15T05:13:35.088Z,1000.13
2023-04-15T05:13:54.903Z,1000.13
2023-04-15T05:14:25.233Z,1000.13
2023-04-15T05:14:42.384Z,1000.03
2023-04-15T05:15:14.746Z,1000.03
2023-04-15T05:15:35.491Z,1000.13
2023-04-15T05:16:01.251Z,1000.13
2023-04-15T05:16:33.887Z,1000.13
2023-04-15T05:17:05.280Z,1000.13
2023-04-15T05:17:36.760Z,1000.13
2023-04-15T05:17:53.173Z,1000.13
2023-04-15T05:18:25.302Z,1000.13
2023-04-15T05:18:42.334Z,1000.24
2023-04-15T05:19:14.062Z,1000.24
2023-04-15T05:19:35.171Z,1000.24
2023-04-15T05:20:01.970Z,1000.24
2023-04-15T05:20:34.545Z,1000.24
2023-04-15T05:21:05.262Z,1000.34
2023-04-15T05:21:37.563Z,1000.03
2023-04-15T05:21:53.154Z,1000.03
2023-04-15T05:22:25.094Z,1000.03
2023-04-15T05:22:42.331Z,1000.34
2023-04-15T05:23:13.938Z,1000.34
2023-04-15T05:23:34.951Z,1000.24
2023-04-15T05:24:01.189Z,1000.24
2023-04-15T05:24:34.483Z,1000.24
2023-04-15T05:25:05.524Z,1000.24
2023-04-15T05:25:35.045Z,1000.34
2023-04-15T05:25:54.215Z,1000.34
2023-04-15T05:26:25.211Z,1000.34
2023-04-15T05:26:42.847Z,1000.13
2023-04-15T05:27:13.903Z,1000.13
2023-04-15T05:27:35.258Z,1000.34
2023-04-15T05:28:01.166Z,1000.34
2023-04-15T05:28:34.048Z,1000.34
2023-04-15T05:29:05.323Z,1000.24
2023-04-15T05:29:35.783Z,1000.44
2023-04-15T05:29:54.080Z,1000.44
2023-04-15T05:30:25.626Z,1000.44
2023-04-15T05:30:42.389Z,1000.44
2023-04-15T05:31:14.934Z,1000.44
2023-04-15T05:31:35.105Z,1000.34
2023-04-15T05:32:01.113Z,1000.34
2023-04-15T05:32:33.897Z,1000.34
2023-04-15T05:33:05.310Z,1000.34
2023-04-15T05:33:35.053Z,1000.54
2023-04-15T05:33:53.996Z,1000.54
2023-04-15T05:34:25.477Z,1000.54
2023-04-15T05:34:42.433Z,1000.34
2023-04-15T05:35:14.196Z,1000.34
2023-04-15T05:35:35.028Z,1000.34
2023-04-15T05:36:01.206Z,1000.34
2023-04-15T05:36:34.739Z,1000.34
2023-04-15T05:37:05.299Z,1000.44
2023-04-15T05:37:35.068Z,1000.44
2023-04-15T05:37:53.999Z,1000.44
2023-04-15T05:38:25.184Z,1000.44
2023-04-15T05:38:42.369Z,1000.34
2023-04-15T05:39:14.018Z,1000.34
2023-04-15T05:39:35.883Z,1000.24
2023-04-15T05:40:02.026Z,1000.24
2023-04-15T05:40:33.946Z,1000.24
2023-04-15T05:41:05.274Z,1000.54
2023-04-15T05:41:34.991Z,1000.44
2023-04-15T05:41:54.030Z,1000.44
2023-04-15T05:42:25.115Z,1000.44
2023-04-15T05:42:42.310Z,1000.44
2023-04-15T05:43:13.959Z,1000.44
2023-04-15T05:43:35.868Z,1000.54
2023-04-15T05:44:01.571Z,1000.54
2023-04-15T05:44:35.257Z,1000.54
2023-04-15T05:45:05.676Z,1000.34
2023-04-15T05:45:35.093Z,1000.54
2023-04-15T05:45:53.322Z,1000.54
2023-04-15T05:46:25.346Z,1000.54
2023-04-15T05:46:42.347Z,1000.54
2023-04-15T05:47:13.950Z,1000.54
2023-04-15T05:47:35.073Z,1000.54
2023-04-15T05:48:01.498Z,1000.54
2023-04-15T05:48:33.413Z,1000.54
2023-04-15T05:49:05.425Z,1000.61
2023-04-15T05:49:35.079Z,1000.54
2023-04-15T05:49:53.101Z,1000.54
2023-04-15T05:50:26.274Z,1000.54
2023-04-15T05:50:57.163Z,1000.34
2023-04-15T05:51:29.247Z,1000.34
2023-04-15T05:52:01.191Z,1000.61
2023-04-15T05:52:33.203Z,1000.61
2023-04-15T05:53:05.294Z,1000.61
2023-04-15T05:53:35.240Z,1000.54
2023-04-15T05:53:54.003Z,1000.54
2023-04-15T05:54:25.468Z,1000.54
2023-04-15T05:54:42.291Z,1000.54
2023-04-15T05:55:14.194Z,1000.54
2023-04-15T05:55:35.005Z,1000.61
2023-04-15T05:56:01.200Z,1000.61
2023-04-15T05:56:33.830Z,1000.61
2023-04-15T05:57:05.338Z,1000.44
2023-04-15T05:57:35.684Z,1000.54
2023-04-15T05:57:54.023Z,1000.54
2023-04-15T05:58:25.507Z,1000.54
2023-04-15T05:58:42.292Z,1000.54
2023-04-15T05:59:13.997Z,1000.54
2023-04-15T05:59:35.182Z,1000.34
2023-04-15T06:00:01.936Z,1000.34
2023-04-15T06:00:33.244Z,1000.34